sensor_id;sensor_type;location;lat;lon;timestamp;P1;durP1;ratioP1;P2;durP2;ratioP2
74512;SDS011;62992;52.052;8.550;2022-09-09T00:00:30;4.93;;;0.70;;
74512;SDS011;62992;52.052;8.550;2022-09-09T00:05:29;1.52;;;0.50;;
74512;SDS011;62992;52.052;8.550;2022-09-09T00:08:02;1.20;;;0.60;;
74512;SDS011;62992;52.052;8.550;2022-09-09T00:21:17;4.43;;;0.75;;
74512;SDS011;62992;52.052;8.550;2022-09-09T00:23:56;3.47;;;0.70;;
74512;SDS011;62992;52.052;8.550;2022-09-09T00:28:56;2.95;;;0.60;;
74512;SDS011;62992;52.052;8.550;2022-09-09T00:31:38;3.17;;;1.02;;
74512;SDS011;62992;52.052;8.550;2022-09-09T00:34:15;2.53;;;0.80;;
74512;SDS011;62992;52.052;8.550;2022-09-09T00:36:44;3.50;;;0.70;;
74512;SDS011;62992;52.052;8.550;2022-09-09T00:39:19;4.60;;;0.90;;
74512;SDS011;62992;52.052;8.550;2022-09-09T00:47:40;3.83;;;0.70;;
74512;SDS011;62992;52.052;8.550;2022-09-09T00:57:58;1.88;;;0.80;;
74512;SDS011;62992;52.052;8.550;2022-09-09T01:00:29;3.00;;;1.00;;
74512;SDS011;62992;52.052;8.550;2022-09-09T01:05:33;2.30;;;0.90;;
74512;SDS011;62992;52.052;8.550;2022-09-09T01:08:32;3.00;;;0.75;;
74512;SDS011;62992;52.052;8.550;2022-09-09T01:11:21;3.40;;;1.00;;
74512;SDS011;62992;52.052;8.550;2022-09-09T01:14:10;3.40;;;0.90;;
74512;SDS011;62992;52.052;8.550;2022-09-09T01:16:55;2.47;;;0.90;;
74512;SDS011;62992;52.052;8.550;2022-09-09T01:19:27;1.65;;;0.90;;
74512;SDS011;62992;52.052;8.550;2022-09-09T01:27:53;4.10;;;1.20;;
74512;SDS011;62992;52.052;8.550;2022-09-09T01:30:33;3.30;;;1.17;;
74512;SDS011;62992;52.052;8.550;2022-09-09T01:33:03;3.08;;;1.10;;
74512;SDS011;62992;52.052;8.550;2022-09-09T01:38:02;3.08;;;1.10;;
74512;SDS011;62992;52.052;8.550;2022-09-09T01:40:28;1.83;;;1.00;;
74512;SDS011;62992;52.052;8.550;2022-09-09T01:42:53;5.85;;;1.20;;
74512;SDS011;62992;52.052;8.550;2022-09-09T01:45:19;3.35;;;1.10;;
74512;SDS011;62992;52.052;8.550;2022-09-09T01:47:46;2.50;;;1.30;;
74512;SDS011;62992;52.052;8.550;2022-09-09T01:50:13;2.75;;;1.10;;
74512;SDS011;62992;52.052;8.550;2022-09-09T01:52:42;2.40;;;1.00;;
74512;SDS011;62992;52.052;8.550;2022-09-09T01:55:08;4.15;;;1.23;;
74512;SDS011;62992;52.052;8.550;2022-09-09T01:57:51;4.38;;;1.25;;
74512;SDS011;62992;52.052;8.550;2022-09-09T02:00:25;1.83;;;1.10;;
74512;SDS011;62992;52.052;8.550;2022-09-09T02:08:43;3.28;;;1.30;;
74512;SDS011;62992;52.052;8.550;2022-09-09T02:11:19;2.03;;;1.10;;
74512;SDS011;62992;52.052;8.550;2022-09-09T02:13:47;3.25;;;1.30;;
74512;SDS011;62992;52.052;8.550;2022-09-09T02:18:48;2.08;;;1.10;;
74512;SDS011;62992;52.052;8.550;2022-09-09T02:21:15;3.28;;;1.00;;
74512;SDS011;62992;52.052;8.550;2022-09-09T02:23:43;2.67;;;0.82;;
74512;SDS011;62992;52.052;8.550;2022-09-09T02:26:12;4.05;;;1.10;;
74512;SDS011;62992;52.052;8.550;2022-09-09T02:28:44;3.53;;;1.40;;
74512;SDS011;62992;52.052;8.550;2022-09-09T02:31:11;2.20;;;0.77;;
74512;SDS011;62992;52.052;8.550;2022-09-09T02:33:41;2.72;;;0.90;;
74512;SDS011;62992;52.052;8.550;2022-09-09T02:36:09;2.65;;;1.00;;
74512;SDS011;62992;52.052;8.550;2022-09-09T02:38:38;3.78;;;1.30;;
74512;SDS011;62992;52.052;8.550;2022-09-09T02:41:08;2.97;;;1.20;;
74512;SDS011;62992;52.052;8.550;2022-09-09T02:43:33;3.70;;;1.30;;
74512;SDS011;62992;52.052;8.550;2022-09-09T02:46:04;4.07;;;1.10;;
74512;SDS011;62992;52.052;8.550;2022-09-09T02:48:55;2.08;;;1.00;;
74512;SDS011;62992;52.052;8.550;2022-09-09T02:54:17;5.50;;;1.27;;
74512;SDS011;62992;52.052;8.550;2022-09-09T02:56:50;1.52;;;1.15;;
74512;SDS011;62992;52.052;8.550;2022-09-09T02:59:19;2.47;;;1.00;;
74512;SDS011;62992;52.052;8.550;2022-09-09T03:01:45;2.55;;;1.17;;
74512;SDS011;62992;52.052;8.550;2022-09-09T03:04:12;2.08;;;1.15;;
74512;SDS011;62992;52.052;8.550;2022-09-09T03:06:38;1.80;;;1.23;;
74512;SDS011;62992;52.052;8.550;2022-09-09T03:09:03;4.28;;;1.42;;
74512;SDS011;62992;52.052;8.550;2022-09-09T03:11:29;4.82;;;1.60;;
74512;SDS011;62992;52.052;8.550;2022-09-09T03:13:55;3.50;;;1.70;;
74512;SDS011;62992;52.052;8.550;2022-09-09T03:16:21;3.47;;;1.80;;
74512;SDS011;62992;52.052;8.550;2022-09-09T03:18:47;3.00;;;1.40;;
74512;SDS011;62992;52.052;8.550;2022-09-09T03:21:13;5.85;;;1.58;;
74512;SDS011;62992;52.052;8.550;2022-09-09T03:23:39;3.38;;;1.30;;
74512;SDS011;62992;52.052;8.550;2022-09-09T03:26:05;5.15;;;1.65;;
74512;SDS011;62992;52.052;8.550;2022-09-09T03:28:30;4.32;;;1.40;;
74512;SDS011;62992;52.052;8.550;2022-09-09T03:30:59;2.33;;;1.13;;
74512;SDS011;62992;52.052;8.550;2022-09-09T03:33:26;3.67;;;1.25;;
74512;SDS011;62992;52.052;8.550;2022-09-09T03:35:52;2.97;;;1.13;;
74512;SDS011;62992;52.052;8.550;2022-09-09T03:38:18;4.00;;;1.30;;
74512;SDS011;62992;52.052;8.550;2022-09-09T03:40:53;1.85;;;0.90;;
74512;SDS011;62992;52.052;8.550;2022-09-09T03:43:20;1.50;;;1.27;;
74512;SDS011;62992;52.052;8.550;2022-09-09T03:45:46;2.42;;;1.00;;
74512;SDS011;62992;52.052;8.550;2022-09-09T03:48:12;2.15;;;1.10;;
74512;SDS011;62992;52.052;8.550;2022-09-09T03:50:43;4.40;;;1.20;;
74512;SDS011;62992;52.052;8.550;2022-09-09T03:53:13;4.45;;;1.15;;
74512;SDS011;62992;52.052;8.550;2022-09-09T03:55:43;3.03;;;1.20;;
74512;SDS011;62992;52.052;8.550;2022-09-09T03:58:10;2.05;;;0.85;;
74512;SDS011;62992;52.052;8.550;2022-09-09T04:00:36;2.17;;;1.27;;
74512;SDS011;62992;52.052;8.550;2022-09-09T04:03:07;3.53;;;1.52;;
74512;SDS011;62992;52.052;8.550;2022-09-09T04:05:36;1.52;;;0.90;;
74512;SDS011;62992;52.052;8.550;2022-09-09T04:08:07;2.75;;;0.90;;
74512;SDS011;62992;52.052;8.550;2022-09-09T04:10:33;2.55;;;0.98;;
74512;SDS011;62992;52.052;8.550;2022-09-09T04:13:01;4.93;;;1.20;;
74512;SDS011;62992;52.052;8.550;2022-09-09T04:15:27;3.22;;;1.17;;
74512;SDS011;62992;52.052;8.550;2022-09-09T04:17:53;2.63;;;1.10;;
74512;SDS011;62992;52.052;8.550;2022-09-09T04:20:18;2.85;;;1.30;;
74512;SDS011;62992;52.052;8.550;2022-09-09T04:22:44;3.50;;;1.35;;
74512;SDS011;62992;52.052;8.550;2022-09-09T04:25:10;4.55;;;1.38;;
74512;SDS011;62992;52.052;8.550;2022-09-09T04:27:35;2.88;;;1.10;;
74512;SDS011;62992;52.052;8.550;2022-09-09T04:30:01;2.78;;;1.10;;
74512;SDS011;62992;52.052;8.550;2022-09-09T04:32:27;4.82;;;1.20;;
74512;SDS011;62992;52.052;8.550;2022-09-09T04:34:52;4.07;;;1.10;;
74512;SDS011;62992;52.052;8.550;2022-09-09T04:37:18;4.35;;;1.45;;
74512;SDS011;62992;52.052;8.550;2022-09-09T04:39:43;8.23;;;1.77;;
74512;SDS011;62992;52.052;8.550;2022-09-09T04:42:10;1.52;;;1.10;;
74512;SDS011;62992;52.052;8.550;2022-09-09T04:44:37;6.03;;;1.42;;
74512;SDS011;62992;52.052;8.550;2022-09-09T04:47:02;3.10;;;1.40;;
74512;SDS011;62992;52.052;8.550;2022-09-09T04:49:28;2.85;;;1.38;;
74512;SDS011;62992;52.052;8.550;2022-09-09T04:51:56;3.78;;;1.75;;
74512;SDS011;62992;52.052;8.550;2022-09-09T04:54:22;3.60;;;1.70;;
74512;SDS011;62992;52.052;8.550;2022-09-09T04:56:49;4.43;;;2.08;;
74512;SDS011;62992;52.052;8.550;2022-09-09T04:59:15;3.10;;;1.92;;
74512;SDS011;62992;52.052;8.550;2022-09-09T05:01:41;4.13;;;2.13;;
74512;SDS011;62992;52.052;8.550;2022-09-09T05:04:07;3.40;;;1.58;;
74512;SDS011;62992;52.052;8.550;2022-09-09T05:06:33;3.67;;;1.50;;
74512;SDS011;62992;52.052;8.550;2022-09-09T05:09:01;3.80;;;2.00;;
74512;SDS011;62992;52.052;8.550;2022-09-09T05:11:27;2.97;;;2.00;;
74512;SDS011;62992;52.052;8.550;2022-09-09T05:13:54;5.10;;;2.58;;
74512;SDS011;62992;52.052;8.550;2022-09-09T05:16:21;8.05;;;2.22;;
74512;SDS011;62992;52.052;8.550;2022-09-09T05:18:47;3.65;;;1.88;;
74512;SDS011;62992;52.052;8.550;2022-09-09T05:21:15;3.85;;;1.67;;
74512;SDS011;62992;52.052;8.550;2022-09-09T05:23:42;3.90;;;1.45;;
74512;SDS011;62992;52.052;8.550;2022-09-09T05:26:09;2.88;;;1.30;;
74512;SDS011;62992;52.052;8.550;2022-09-09T05:28:38;2.88;;;1.50;;
74512;SDS011;62992;52.052;8.550;2022-09-09T05:31:05;3.30;;;1.55;;
74512;SDS011;62992;52.052;8.550;2022-09-09T05:33:37;3.47;;;1.40;;
74512;SDS011;62992;52.052;8.550;2022-09-09T05:36:08;3.85;;;1.42;;
74512;SDS011;62992;52.052;8.550;2022-09-09T05:38:36;3.40;;;1.38;;
74512;SDS011;62992;52.052;8.550;2022-09-09T05:41:03;5.72;;;1.40;;
74512;SDS011;62992;52.052;8.550;2022-09-09T05:43:28;2.05;;;1.38;;
74512;SDS011;62992;52.052;8.550;2022-09-09T05:46:01;2.55;;;1.50;;
74512;SDS011;62992;52.052;8.550;2022-09-09T05:48:30;5.07;;;1.55;;
74512;SDS011;62992;52.052;8.550;2022-09-09T05:50:57;3.72;;;1.50;;
74512;SDS011;62992;52.052;8.550;2022-09-09T05:53:23;4.00;;;1.33;;
74512;SDS011;62992;52.052;8.550;2022-09-09T05:55:49;2.95;;;1.20;;
74512;SDS011;62992;52.052;8.550;2022-09-09T05:58:15;4.00;;;1.25;;
74512;SDS011;62992;52.052;8.550;2022-09-09T06:00:41;2.60;;;1.17;;
74512;SDS011;62992;52.052;8.550;2022-09-09T06:03:10;4.32;;;1.40;;
74512;SDS011;62992;52.052;8.550;2022-09-09T06:05:36;2.05;;;1.30;;
74512;SDS011;62992;52.052;8.550;2022-09-09T06:08:02;2.47;;;1.10;;
74512;SDS011;62992;52.052;8.550;2022-09-09T06:10:28;4.40;;;1.08;;
74512;SDS011;62992;52.052;8.550;2022-09-09T06:12:54;4.63;;;1.95;;
74512;SDS011;62992;52.052;8.550;2022-09-09T06:15:19;3.65;;;1.50;;
74512;SDS011;62992;52.052;8.550;2022-09-09T06:17:45;1.45;;;1.23;;
74512;SDS011;62992;52.052;8.550;2022-09-09T06:20:10;4.38;;;1.30;;
74512;SDS011;62992;52.052;8.550;2022-09-09T06:22:39;2.80;;;1.00;;
74512;SDS011;62992;52.052;8.550;2022-09-09T06:25:06;4.53;;;1.85;;
74512;SDS011;62992;52.052;8.550;2022-09-09T06:27:33;5.18;;;1.35;;
74512;SDS011;62992;52.052;8.550;2022-09-09T06:29:58;4.85;;;1.23;;
74512;SDS011;62992;52.052;8.550;2022-09-09T06:32:24;3.22;;;1.25;;
74512;SDS011;62992;52.052;8.550;2022-09-09T06:34:50;1.92;;;1.02;;
74512;SDS011;62992;52.052;8.550;2022-09-09T06:37:16;3.22;;;1.20;;
74512;SDS011;62992;52.052;8.550;2022-09-09T06:39:42;5.05;;;1.42;;
74512;SDS011;62992;52.052;8.550;2022-09-09T06:42:07;4.90;;;2.08;;
74512;SDS011;62992;52.052;8.550;2022-09-09T06:44:34;3.67;;;1.20;;
74512;SDS011;62992;52.052;8.550;2022-09-09T06:47:00;4.30;;;1.23;;
74512;SDS011;62992;52.052;8.550;2022-09-09T06:49:25;6.25;;;1.50;;
74512;SDS011;62992;52.052;8.550;2022-09-09T06:51:51;4.57;;;1.20;;
74512;SDS011;62992;52.052;8.550;2022-09-09T06:54:17;3.00;;;1.13;;
74512;SDS011;62992;52.052;8.550;2022-09-09T06:56:43;7.50;;;1.70;;
74512;SDS011;62992;52.052;8.550;2022-09-09T06:59:10;4.65;;;1.08;;
74512;SDS011;62992;52.052;8.550;2022-09-09T07:01:41;2.20;;;0.90;;
74512;SDS011;62992;52.052;8.550;2022-09-09T07:04:11;4.00;;;1.27;;
74512;SDS011;62992;52.052;8.550;2022-09-09T07:06:40;5.50;;;1.20;;
74512;SDS011;62992;52.052;8.550;2022-09-09T07:09:11;4.68;;;1.15;;
74512;SDS011;62992;52.052;8.550;2022-09-09T07:11:40;3.63;;;1.10;;
74512;SDS011;62992;52.052;8.550;2022-09-09T07:14:10;3.47;;;1.30;;
74512;SDS011;62992;52.052;8.550;2022-09-09T07:16:40;5.57;;;1.23;;
74512;SDS011;62992;52.052;8.550;2022-09-09T07:19:07;3.65;;;1.35;;
74512;SDS011;62992;52.052;8.550;2022-09-09T07:21:33;2.78;;;1.20;;
74512;SDS011;62992;52.052;8.550;2022-09-09T07:23:59;4.50;;;1.30;;
74512;SDS011;62992;52.052;8.550;2022-09-09T07:26:26;3.03;;;1.40;;
74512;SDS011;62992;52.052;8.550;2022-09-09T07:28:54;5.25;;;1.38;;
74512;SDS011;62992;52.052;8.550;2022-09-09T07:31:27;4.68;;;1.98;;
74512;SDS011;62992;52.052;8.550;2022-09-09T07:33:55;4.43;;;1.38;;
74512;SDS011;62992;52.052;8.550;2022-09-09T07:36:24;5.43;;;1.25;;
74512;SDS011;62992;52.052;8.550;2022-09-09T07:38:53;1.92;;;1.00;;
74512;SDS011;62992;52.052;8.550;2022-09-09T07:41:21;3.20;;;1.17;;
74512;SDS011;62992;52.052;8.550;2022-09-09T07:43:49;2.40;;;0.98;;
74512;SDS011;62992;52.052;8.550;2022-09-09T07:46:17;4.20;;;1.40;;
74512;SDS011;62992;52.052;8.550;2022-09-09T07:48:50;2.53;;;1.00;;
74512;SDS011;62992;52.052;8.550;2022-09-09T07:51:19;4.50;;;1.30;;
74512;SDS011;62992;52.052;8.550;2022-09-09T07:53:47;2.38;;;1.05;;
74512;SDS011;62992;52.052;8.550;2022-09-09T07:56:16;4.40;;;1.20;;
74512;SDS011;62992;52.052;8.550;2022-09-09T07:58:46;5.10;;;1.13;;
74512;SDS011;62992;52.052;8.550;2022-09-09T08:01:22;4.50;;;1.02;;
74512;SDS011;62992;52.052;8.550;2022-09-09T08:03:53;4.28;;;1.17;;
74512;SDS011;62992;52.052;8.550;2022-09-09T08:06:24;7.28;;;1.40;;
74512;SDS011;62992;52.052;8.550;2022-09-09T08:08:51;4.47;;;1.25;;
74512;SDS011;62992;52.052;8.550;2022-09-09T08:11:18;4.88;;;1.10;;
74512;SDS011;62992;52.052;8.550;2022-09-09T08:13:44;3.60;;;1.00;;
74512;SDS011;62992;52.052;8.550;2022-09-09T08:18:49;6.05;;;1.08;;
74512;SDS011;62992;52.052;8.550;2022-09-09T08:21:26;4.68;;;0.93;;
74512;SDS011;62992;52.052;8.550;2022-09-09T08:23:53;3.28;;;0.98;;
74512;SDS011;62992;52.052;8.550;2022-09-09T08:26:30;3.53;;;1.10;;
74512;SDS011;62992;52.052;8.550;2022-09-09T08:29:01;3.60;;;1.08;;
74512;SDS011;62992;52.052;8.550;2022-09-09T08:31:29;4.13;;;1.08;;
74512;SDS011;62992;52.052;8.550;2022-09-09T08:33:59;4.50;;;1.40;;
74512;SDS011;62992;52.052;8.550;2022-09-09T08:36:28;6.00;;;1.20;;
74512;SDS011;62992;52.052;8.550;2022-09-09T08:38:56;2.05;;;0.90;;
74512;SDS011;62992;52.052;8.550;2022-09-09T08:44:07;2.85;;;0.93;;
74512;SDS011;62992;52.052;8.550;2022-09-09T08:49:56;3.92;;;0.90;;
74512;SDS011;62992;52.052;8.550;2022-09-09T08:52:19;4.60;;;1.15;;
74512;SDS011;62992;52.052;8.550;2022-09-09T08:54:50;4.35;;;0.88;;
74512;SDS011;62992;52.052;8.550;2022-09-09T08:57:20;3.03;;;0.80;;
74512;SDS011;62992;52.052;8.550;2022-09-09T08:59:51;6.03;;;0.90;;
74512;SDS011;62992;52.052;8.550;2022-09-09T09:10:42;3.88;;;0.90;;
74512;SDS011;62992;52.052;8.550;2022-09-09T09:13:13;3.25;;;0.70;;
74512;SDS011;62992;52.052;8.550;2022-09-09T09:15:46;4.20;;;0.90;;
74512;SDS011;62992;52.052;8.550;2022-09-09T09:18:25;2.75;;;0.50;;
74512;SDS011;62992;52.052;8.550;2022-09-09T09:21:12;4.22;;;1.00;;
74512;SDS011;62992;52.052;8.550;2022-09-09T09:24:01;3.05;;;0.70;;
74512;SDS011;62992;52.052;8.550;2022-09-09T09:26:31;1.90;;;0.63;;
74512;SDS011;62992;52.052;8.550;2022-09-09T09:29:01;5.13;;;0.90;;
74512;SDS011;62992;52.052;8.550;2022-09-09T09:31:34;5.87;;;1.20;;
74512;SDS011;62992;52.052;8.550;2022-09-09T09:34:00;5.85;;;0.90;;
74512;SDS011;62992;52.052;8.550;2022-09-09T09:36:33;2.58;;;0.60;;
74512;SDS011;62992;52.052;8.550;2022-09-09T09:39:03;3.17;;;0.80;;
74512;SDS011;62992;52.052;8.550;2022-09-09T09:43:57;4.20;;;1.10;;
74512;SDS011;62992;52.052;8.550;2022-09-09T09:46:24;3.47;;;0.68;;
74512;SDS011;62992;52.052;8.550;2022-09-09T09:48:57;5.03;;;1.00;;
74512;SDS011;62992;52.052;8.550;2022-09-09T09:51:23;4.50;;;0.70;;
74512;SDS011;62992;52.052;8.550;2022-09-09T09:53:51;3.03;;;1.13;;
74512;SDS011;62992;52.052;8.550;2022-09-09T09:56:25;2.97;;;0.88;;
74512;SDS011;62992;52.052;8.550;2022-09-09T09:58:53;3.97;;;0.80;;
74512;SDS011;62992;52.052;8.550;2022-09-09T10:04:03;4.65;;;1.00;;
74512;SDS011;62992;52.052;8.550;2022-09-09T10:06:48;5.57;;;0.77;;
74512;SDS011;62992;52.052;8.550;2022-09-09T10:09:25;4.13;;;0.90;;
74512;SDS011;62992;52.052;8.550;2022-09-09T10:11:57;3.42;;;1.08;;
74512;SDS011;62992;52.052;8.550;2022-09-09T10:14:32;3.17;;;0.65;;
74512;SDS011;62992;52.052;8.550;2022-09-09T10:17:18;2.30;;;0.63;;
74512;SDS011;62992;52.052;8.550;2022-09-09T10:23:04;4.68;;;1.10;;
74512;SDS011;62992;52.052;8.550;2022-09-09T10:31:49;6.03;;;0.70;;
74512;SDS011;62992;52.052;8.550;2022-09-09T10:37:22;4.20;;;0.75;;
74512;SDS011;62992;52.052;8.550;2022-09-09T10:42:31;1.38;;;0.82;;
74512;SDS011;62992;52.052;8.550;2022-09-09T10:45:00;2.08;;;0.63;;
74512;SDS011;62992;52.052;8.550;2022-09-09T10:55:57;3.38;;;0.75;;
74512;SDS011;62992;52.052;8.550;2022-09-09T10:58:31;2.28;;;0.60;;
74512;SDS011;62992;52.052;8.550;2022-09-09T11:01:18;4.30;;;0.90;;
74512;SDS011;62992;52.052;8.550;2022-09-09T11:04:29;3.13;;;0.95;;
74512;SDS011;62992;52.052;8.550;2022-09-09T11:07:01;2.50;;;1.05;;
74512;SDS011;62992;52.052;8.550;2022-09-09T11:09:33;2.97;;;0.70;;
74512;SDS011;62992;52.052;8.550;2022-09-09T11:12:04;3.90;;;0.70;;
74512;SDS011;62992;52.052;8.550;2022-09-09T11:14:40;4.30;;;1.05;;
74512;SDS011;62992;52.052;8.550;2022-09-09T11:17:11;3.65;;;0.80;;
74512;SDS011;62992;52.052;8.550;2022-09-09T11:19:42;4.28;;;0.60;;
74512;SDS011;62992;52.052;8.550;2022-09-09T11:25:10;6.20;;;0.85;;
74512;SDS011;62992;52.052;8.550;2022-09-09T11:38:44;5.90;;;1.73;;
74512;SDS011;62992;52.052;8.550;2022-09-09T11:41:16;3.13;;;0.55;;
74512;SDS011;62992;52.052;8.550;2022-09-09T11:43:46;3.17;;;0.70;;
74512;SDS011;62992;52.052;8.550;2022-09-09T11:46:15;2.55;;;0.50;;
74512;SDS011;62992;52.052;8.550;2022-09-09T11:48:45;2.80;;;0.80;;
74512;SDS011;62992;52.052;8.550;2022-09-09T11:56:24;3.72;;;0.77;;
74512;SDS011;62992;52.052;8.550;2022-09-09T11:59:02;4.55;;;0.90;;
74512;SDS011;62992;52.052;8.550;2022-09-09T12:01:42;4.20;;;0.60;;
74512;SDS011;62992;52.052;8.550;2022-09-09T12:06:54;2.25;;;0.75;;
74512;SDS011;62992;52.052;8.550;2022-09-09T12:19:39;4.32;;;0.93;;
74512;SDS011;62992;52.052;8.550;2022-09-09T12:24:45;2.03;;;0.45;;
74512;SDS011;62992;52.052;8.550;2022-09-09T12:27:34;3.17;;;0.60;;
74512;SDS011;62992;52.052;8.550;2022-09-09T12:30:11;2.47;;;0.60;;
74512;SDS011;62992;52.052;8.550;2022-09-09T12:32:40;3.05;;;0.50;;
74512;SDS011;62992;52.052;8.550;2022-09-09T12:35:13;2.53;;;0.47;;
74512;SDS011;62992;52.052;8.550;2022-09-09T12:37:52;2.25;;;0.77;;
74512;SDS011;62992;52.052;8.550;2022-09-09T12:42:48;2.53;;;0.50;;
74512;SDS011;62992;52.052;8.550;2022-09-09T12:45:22;2.77;;;0.50;;
74512;SDS011;62992;52.052;8.550;2022-09-09T12:50:17;2.20;;;0.95;;
74512;SDS011;62992;52.052;8.550;2022-09-09T12:52:50;2.37;;;0.47;;
74512;SDS011;62992;52.052;8.550;2022-09-09T12:55:23;3.03;;;0.57;;
74512;SDS011;62992;52.052;8.550;2022-09-09T12:57:52;3.72;;;0.75;;
74512;SDS011;62992;52.052;8.550;2022-09-09T13:00:19;3.22;;;0.82;;
74512;SDS011;62992;52.052;8.550;2022-09-09T13:02:54;1.77;;;0.52;;
74512;SDS011;62992;52.052;8.550;2022-09-09T13:07:51;3.42;;;1.17;;
74512;SDS011;62992;52.052;8.550;2022-09-09T13:10:27;4.85;;;0.90;;
74512;SDS011;62992;52.052;8.550;2022-09-09T13:12:55;2.88;;;0.70;;
74512;SDS011;62992;52.052;8.550;2022-09-09T13:15:22;2.47;;;0.70;;
74512;SDS011;62992;52.052;8.550;2022-09-09T13:17:58;2.92;;;0.82;;
74512;SDS011;62992;52.052;8.550;2022-09-09T13:20:28;3.45;;;0.80;;
74512;SDS011;62992;52.052;8.550;2022-09-09T13:22:55;5.57;;;0.85;;
74512;SDS011;62992;52.052;8.550;2022-09-09T13:25:28;1.80;;;0.70;;
74512;SDS011;62992;52.052;8.550;2022-09-09T13:35:45;2.83;;;0.60;;
74512;SDS011;62992;52.052;8.550;2022-09-09T13:38:22;3.05;;;0.57;;
74512;SDS011;62992;52.052;8.550;2022-09-09T13:40:54;1.73;;;0.60;;
74512;SDS011;62992;52.052;8.550;2022-09-09T13:43:27;1.20;;;0.40;;
74512;SDS011;62992;52.052;8.550;2022-09-09T13:45:57;1.45;;;0.40;;
74512;SDS011;62992;52.052;8.550;2022-09-09T13:48:24;3.42;;;0.50;;
74512;SDS011;62992;52.052;8.550;2022-09-09T13:50:54;3.83;;;0.60;;
74512;SDS011;62992;52.052;8.550;2022-09-09T13:53:21;1.98;;;0.40;;
74512;SDS011;62992;52.052;8.550;2022-09-09T13:55:47;0.80;;;0.30;;
74512;SDS011;62992;52.052;8.550;2022-09-09T13:58:16;2.72;;;0.60;;
74512;SDS011;62992;52.052;8.550;2022-09-09T14:00:45;2.83;;;0.32;;
74512;SDS011;62992;52.052;8.550;2022-09-09T14:03:11;1.20;;;0.35;;
74512;SDS011;62992;52.052;8.550;2022-09-09T14:05:37;2.92;;;0.40;;
74512;SDS011;62992;52.052;8.550;2022-09-09T14:08:03;2.05;;;0.45;;
74512;SDS011;62992;52.052;8.550;2022-09-09T14:10:30;1.00;;;0.43;;
74512;SDS011;62992;52.052;8.550;2022-09-09T14:12:56;1.08;;;0.57;;
74512;SDS011;62992;52.052;8.550;2022-09-09T14:15:22;3.47;;;0.57;;
74512;SDS011;62992;52.052;8.550;2022-09-09T14:17:47;3.33;;;0.80;;
74512;SDS011;62992;52.052;8.550;2022-09-09T14:20:13;2.65;;;0.60;;
74512;SDS011;62992;52.052;8.550;2022-09-09T14:22:40;1.65;;;0.60;;
74512;SDS011;62992;52.052;8.550;2022-09-09T14:25:06;2.13;;;0.50;;
74512;SDS011;62992;52.052;8.550;2022-09-09T14:27:32;3.33;;;0.70;;
74512;SDS011;62992;52.052;8.550;2022-09-09T14:29:58;2.03;;;1.00;;
74512;SDS011;62992;52.052;8.550;2022-09-09T14:32:25;3.53;;;0.40;;
74512;SDS011;62992;52.052;8.550;2022-09-09T14:34:51;3.97;;;0.47;;
74512;SDS011;62992;52.052;8.550;2022-09-09T14:37:17;2.10;;;0.75;;
74512;SDS011;62992;52.052;8.550;2022-09-09T14:39:43;3.65;;;0.47;;
74512;SDS011;62992;52.052;8.550;2022-09-09T14:42:09;2.90;;;0.57;;
74512;SDS011;62992;52.052;8.550;2022-09-09T14:44:36;3.22;;;0.65;;
74512;SDS011;62992;52.052;8.550;2022-09-09T14:47:03;1.80;;;0.70;;
74512;SDS011;62992;52.052;8.550;2022-09-09T14:49:29;0.90;;;0.60;;
74512;SDS011;62992;52.052;8.550;2022-09-09T14:51:56;2.60;;;0.47;;
74512;SDS011;62992;52.052;8.550;2022-09-09T14:54:21;1.80;;;0.57;;
74512;SDS011;62992;52.052;8.550;2022-09-09T14:56:48;1.65;;;0.60;;
74512;SDS011;62992;52.052;8.550;2022-09-09T14:59:14;2.72;;;0.40;;
74512;SDS011;62992;52.052;8.550;2022-09-09T15:01:39;2.10;;;0.60;;
74512;SDS011;62992;52.052;8.550;2022-09-09T15:04:05;1.90;;;0.50;;
74512;SDS011;62992;52.052;8.550;2022-09-09T15:06:32;2.80;;;0.50;;
74512;SDS011;62992;52.052;8.550;2022-09-09T15:08:59;2.17;;;0.40;;
74512;SDS011;62992;52.052;8.550;2022-09-09T15:11:26;3.03;;;0.50;;
74512;SDS011;62992;52.052;8.550;2022-09-09T15:13:55;3.53;;;0.40;;
74512;SDS011;62992;52.052;8.550;2022-09-09T15:16:23;3.22;;;1.52;;
74512;SDS011;62992;52.052;8.550;2022-09-09T15:18:51;1.55;;;0.40;;
74512;SDS011;62992;52.052;8.550;2022-09-09T15:21:19;3.60;;;0.50;;
74512;SDS011;62992;52.052;8.550;2022-09-09T15:23:46;4.03;;;0.60;;
74512;SDS011;62992;52.052;8.550;2022-09-09T15:26:13;3.20;;;0.50;;
74512;SDS011;62992;52.052;8.550;2022-09-09T15:28:39;1.35;;;0.40;;
74512;SDS011;62992;52.052;8.550;2022-09-09T15:31:15;2.40;;;0.50;;
74512;SDS011;62992;52.052;8.550;2022-09-09T15:33:46;2.65;;;0.50;;
74512;SDS011;62992;52.052;8.550;2022-09-09T15:36:16;3.35;;;0.50;;
74512;SDS011;62992;52.052;8.550;2022-09-09T15:38:47;3.22;;;0.80;;
74512;SDS011;62992;52.052;8.550;2022-09-09T15:41:13;2.10;;;0.60;;
74512;SDS011;62992;52.052;8.550;2022-09-09T15:43:47;3.65;;;0.88;;
74512;SDS011;62992;52.052;8.550;2022-09-09T15:46:22;2.80;;;0.60;;
74512;SDS011;62992;52.052;8.550;2022-09-09T15:49:24;4.35;;;0.63;;
74512;SDS011;62992;52.052;8.550;2022-09-09T15:51:54;1.38;;;0.40;;
74512;SDS011;62992;52.052;8.550;2022-09-09T15:54:22;2.20;;;0.50;;
74512;SDS011;62992;52.052;8.550;2022-09-09T15:56:54;1.92;;;0.60;;
74512;SDS011;62992;52.052;8.550;2022-09-09T15:59:25;2.28;;;0.50;;
74512;SDS011;62992;52.052;8.550;2022-09-09T16:01:55;3.58;;;0.52;;
74512;SDS011;62992;52.052;8.550;2022-09-09T16:04:22;1.77;;;0.55;;
74512;SDS011;62992;52.052;8.550;2022-09-09T16:06:52;1.70;;;0.50;;
74512;SDS011;62992;52.052;8.550;2022-09-09T16:09:19;2.42;;;0.50;;
74512;SDS011;62992;52.052;8.550;2022-09-09T16:11:45;3.10;;;0.63;;
74512;SDS011;62992;52.052;8.550;2022-09-09T16:14:12;2.00;;;0.50;;
74512;SDS011;62992;52.052;8.550;2022-09-09T16:16:40;3.00;;;0.65;;
74512;SDS011;62992;52.052;8.550;2022-09-09T16:19:07;2.67;;;0.88;;
74512;SDS011;62992;52.052;8.550;2022-09-09T16:21:38;1.75;;;0.50;;
74512;SDS011;62992;52.052;8.550;2022-09-09T16:24:10;3.03;;;0.70;;
74512;SDS011;62992;52.052;8.550;2022-09-09T16:26:37;1.30;;;0.82;;
74512;SDS011;62992;52.052;8.550;2022-09-09T16:29:09;1.25;;;0.40;;
74512;SDS011;62992;52.052;8.550;2022-09-09T16:31:35;2.15;;;0.50;;
74512;SDS011;62992;52.052;8.550;2022-09-09T16:34:01;2.63;;;0.45;;
74512;SDS011;62992;52.052;8.550;2022-09-09T16:36:29;3.47;;;0.50;;
74512;SDS011;62992;52.052;8.550;2022-09-09T16:38:57;3.92;;;0.70;;
74512;SDS011;62992;52.052;8.550;2022-09-09T16:41:24;2.17;;;0.50;;
74512;SDS011;62992;52.052;8.550;2022-09-09T16:43:53;1.77;;;0.50;;
74512;SDS011;62992;52.052;8.550;2022-09-09T16:46:20;2.05;;;0.63;;
74512;SDS011;62992;52.052;8.550;2022-09-09T16:48:47;2.00;;;0.47;;
74512;SDS011;62992;52.052;8.550;2022-09-09T16:51:21;3.40;;;0.57;;
74512;SDS011;62992;52.052;8.550;2022-09-09T16:53:49;3.95;;;0.50;;
74512;SDS011;62992;52.052;8.550;2022-09-09T16:56:16;2.90;;;0.60;;
74512;SDS011;62992;52.052;8.550;2022-09-09T16:58:44;3.42;;;0.75;;
74512;SDS011;62992;52.052;8.550;2022-09-09T17:01:15;6.50;;;1.00;;
74512;SDS011;62992;52.052;8.550;2022-09-09T17:03:41;1.80;;;0.70;;
74512;SDS011;62992;52.052;8.550;2022-09-09T17:06:11;1.98;;;0.90;;
74512;SDS011;62992;52.052;8.550;2022-09-09T17:08:41;3.25;;;0.70;;
74512;SDS011;62992;52.052;8.550;2022-09-09T17:11:13;3.75;;;0.77;;
74512;SDS011;62992;52.052;8.550;2022-09-09T17:13:44;2.83;;;1.00;;
74512;SDS011;62992;52.052;8.550;2022-09-09T17:16:11;5.72;;;1.23;;
74512;SDS011;62992;52.052;8.550;2022-09-09T17:18:37;2.75;;;0.73;;
74512;SDS011;62992;52.052;8.550;2022-09-09T17:21:04;3.63;;;0.70;;
74512;SDS011;62992;52.052;8.550;2022-09-09T17:23:33;1.25;;;0.50;;
74512;SDS011;62992;52.052;8.550;2022-09-09T17:25:59;2.25;;;0.60;;
74512;SDS011;62992;52.052;8.550;2022-09-09T17:28:26;1.27;;;0.70;;